createdAt,value
2023-05-20T00:00:53.117Z,15.29
2023-05-20T00:03:39.236Z,15.29
2023-05-20T00:06:22.359Z,15.34
2023-05-20T00:09:08.202Z,15.41
2023-05-20T00:11:51.289Z,15.27
2023-05-20T00:14:38.901Z,15.41
2023-05-20T00:17:08.987Z,14.98
2023-05-20T00:19:54.879Z,15.10
2023-05-20T00:22:30.995Z,14.84
2023-05-20T00:25:20.567Z,15.01
2023-05-20T00:28:10.155Z,15.04
2023-05-20T00:30:54.974Z,15.12
2023-05-20T00:33:39.679Z,14.96
2023-05-20T00:36:25.853Z,15.32
2023-05-20T00:39:21.808Z,15.30
2023-05-20T00:42:14.997Z,14.82
2023-05-20T00:45:06.136Z,14.78
2023-05-20T00:47:48.047Z,14.90
2023-05-20T00:51:00.541Z,14.94
2023-05-20T00:53:42.846Z,15.00
2023-05-20T00:56:28.000Z,14.91
2023-05-20T00:59:17.088Z,14.48
2023-05-20T01:02:00.158Z,14.40
2023-05-20T01:04:50.306Z,14.19
2023-05-20T01:07:38.855Z,14.32
2023-05-20T01:10:19.341Z,14.28
2023-05-20T01:13:02.980Z,14.44
2023-05-20T01:15:49.915Z,14.43
2023-05-20T01:18:30.969Z,14.65
2023-05-20T01:21:19.192Z,14.50
2023-05-20T01:24:08.712Z,14.54
2023-05-20T01:27:06.014Z,14.59
2023-05-20T01:29:59.580Z,14.40
2023-05-20T01:32:41.517Z,14.16
2023-05-20T01:35:29.211Z,14.28
2023-05-20T01:38:09.717Z,14.21
2023-05-20T01:40:51.063Z,14.20
2023-05-20T01:43:41.053Z,13.99
2023-05-20T01:46:20.893Z,14.07
2023-05-20T01:49:14.711Z,13.99
2023-05-20T01:51:58.706Z,13.85
2023-05-20T01:54:42.955Z,14.00
2023-05-20T01:57:34.055Z,14.20
2023-05-20T02:00:29.748Z,14.07
2023-05-20T02:03:13.540Z,14.03
2023-05-20T02:05:59.747Z,13.78
2023-05-20T02:08:48.254Z,13.92
2023-05-20T02:11:33.333Z,13.98
2023-05-20T02:14:23.825Z,13.97
2023-05-20T02:17:30.101Z,13.89
2023-05-20T02:20:16.180Z,13.62
2023-05-20T02:22:56.919Z,13.59
2023-05-20T02:25:37.093Z,13.39
2023-05-20T02:28:34.287Z,13.57
2023-05-20T02:31:28.463Z,13.83
2023-05-20T02:34:06.655Z,13.77
2023-05-20T02:36:56.587Z,13.71
2023-05-20T02:39:32.942Z,13.67
2023-05-20T02:42:21.869Z,13.75
2023-05-20T02:45:14.652Z,13.60
2023-05-20T02:47:59.677Z,13.66
2023-05-20T02:50:42.971Z,13.58
2023-05-20T02:53:35.787Z,13.64
2023-05-20T02:56:21.480Z,13.63
2023-05-20T02:59:04.851Z,13.59
2023-05-20T03:01:43.073Z,13.57
2023-05-20T03:04:25.030Z,13.48
2023-05-20T03:07:11.764Z,13.20
2023-05-20T03:10:00.453Z,13.30
2023-05-20T03:12:38.466Z,13.43
2023-05-20T03:15:26.337Z,13.74
2023-05-20T03:18:11.165Z,13.52
2023-05-20T03:21:00.243Z,13.55
2023-05-20T03:23:43.951Z,13.47
2023-05-20T03:26:28.797Z,13.70
2023-05-20T03:29:12.522Z,13.40
2023-05-20T03:31:48.940Z,13.57
2023-05-20T03:34:34.199Z,13.91
2023-05-20T03:37:20.450Z,13.79
2023-05-20T03:40:10.553Z,13.93
2023-05-20T03:42:46.861Z,14.04
2023-05-20T03:45:30.407Z,14.24
2023-05-20T03:48:26.094Z,14.02
2023-05-20T03:51:07.924Z,14.35
2023-05-20T03:53:52.136Z,14.30
2023-05-20T03:56:46.730Z,14.36
2023-05-20T03:59:43.215Z,14.30
2023-05-20T04:02:32.014Z,14.43
2023-05-20T04:05:10.947Z,14.22
2023-05-20T04:07:59.216Z,14.42
2023-05-20T04:10:46.331Z,14.43
2023-05-20T04:13:30.744Z,14.54
2023-05-20T04:16:14.103Z,14.76
2023-05-20T04:19:01.795Z,14.91
2023-05-20T04:21:49.700Z,14.93
2023-05-20T04:24:34.033Z,15.09
2023-05-20T04:27:20.747Z,14.68
2023-05-20T04:30:01.884Z,14.82
2023-05-20T04:32:41.773Z,14.87
2023-05-20T04:35:21.332Z,15.16
2023-05-20T04:38:08.678Z,15.47
2023-05-20T04:40:51.195Z,15.51
2023-05-20T04:43:36.708Z,15.73
2023-05-20T04:46:24.506Z,16.13
2023-05-20T04:49:08.406Z,16.45
2023-05-20T04:51:51.964Z,16.56
2023-05-20T04:54:38.782Z,16.82
2023-05-20T04:57:25.366Z,17.24
2023-05-20T05:00:05.368Z,17.47
2023-05-20T05:02:51.876Z,18.02
2023-05-20T05:05:40.006Z,18.14
2023-05-20T05:08:27.524Z,18.60
2023-05-20T05:11:16.634Z,18.74
2023-05-20T05:14:03.747Z,18.94
2023-05-20T05:16:50.054Z,18.89
2023-05-20T05:19:37.292Z,19.47
2023-05-20T05:22:18.697Z,19.68
2023-05-20T05:25:22.685Z,19.73
2023-05-20T05:28:02.374Z,20.16
2023-05-20T05:30:44.925Z,20.24
2023-05-20T05:33:23.159Z,20.62
2023-05-20T05:36:08.718Z,20.80
2023-05-20T05:38:48.900Z,20.97
2023-05-20T05:41:31.942Z,20.81
2023-05-20T05:44:27.357Z,21.06
2023-05-20T05:47:10.805Z,21.06
2023-05-20T05:49:50.801Z,21.13
2023-05-20T05:52:29.084Z,21.47
2023-05-20T05:55:15.612Z,21.75
2023-05-20T05:58:06.584Z,21.80
2023-05-20T06:00:39.510Z,21.89
2023-05-20T06:03:22.542Z,22.17
2023-05-20T06:06:09.030Z,21.85
2023-05-20T06:08:54.462Z,22.04
2023-05-20T06:11:38.548Z,22.47
2023-05-20T06:14:23.259Z,22.67
2023-05-20T06:17:08.991Z,23.33
2023-05-20T06:19:55.945Z,22.78
2023-05-20T06:22:36.915Z,23.24
2023-05-20T06:25:30.694Z,23.97
2023-05-20T06:28:14.727Z,23.79
2023-05-20T06:30:58.535Z,23.62
2023-05-20T06:33:45.150Z,24.63
2023-05-20T06:36:25.918Z,24.85
2023-05-20T06:39:01.250Z,24.96
2023-05-20T06:41:42.042Z,24.79
2023-05-20T06:44:32.761Z,25.18
2023-05-20T06:47:21.523Z,25.41
2023-05-20T06:50:13.651Z,24.72
2023-05-20T06:53:00.530Z,25.14
2023-05-20T06:55:40.771Z,25.50
2023-05-20T06:58:18.991Z,25.09
2023-05-20T07:01:05.387Z,25.75
2023-05-20T07:03:47.033Z,26.05
2023-05-20T07:06:27.856Z,25.71
2023-05-20T07:09:11.777Z,26.15
2023-05-20T07:11:53.500Z,25.45
2023-05-20T07:14:33.827Z,25.97
2023-05-20T07:17:18.285Z,25.83
2023-05-20T07:20:05.230Z,26.69
2023-05-20T07:22:52.975Z,26.72
2023-05-20T07:25:46.981Z,25.93
2023-05-20T07:28:34.664Z,25.88
2023-05-20T07:31:15.234Z,26.07
2023-05-20T07:33:57.966Z,26.48
2023-05-20T07:36:41.734Z,26.49
2023-05-20T07:39:18.647Z,26.35
2023-05-20T07:41:56.984Z,26.66
2023-05-20T07:44:46.941Z,25.91
2023-05-20T07:47:25.519Z,27.25
2023-05-20T07:50:07.047Z,26.74
2023-05-20T07:52:56.338Z,26.27
2023-05-20T07:55:48.935Z,26.21
2023-05-20T07:58:31.715Z,26.18
2023-05-20T08:01:10.135Z,26.59
2023-05-20T08:03:57.109Z,26.51
2023-05-20T08:06:33.693Z,26.97
2023-05-20T08:09:21.850Z,26.67
2023-05-20T08:12:19.360Z,26.87
2023-05-20T08:15:01.976Z,27.26
2023-05-20T08:17:53.656Z,27.02
2023-05-20T08:20:35.395Z,27.22
2023-05-20T08:23:19.069Z,27.47
2023-05-20T08:25:57.758Z,27.56
2023-05-20T08:28:39.706Z,26.99
2023-05-20T08:31:21.293Z,27.11
2023-05-20T08:34:04.972Z,27.95
2023-05-20T08:36:51.749Z,27.72
2023-05-20T08:39:32.913Z,28.07
2023-05-20T08:42:14.006Z,28.28
2023-05-20T08:45:01.938Z,28.17
2023-05-20T08:48:05.629Z,28.50
2023-05-20T08:50:39.036Z,27.69
2023-05-20T08:53:14.462Z,28.10
2023-05-20T08:56:10.929Z,28.82
2023-05-20T08:58:49.191Z,27.99
2023-05-20T09:01:31.765Z,29.28
2023-05-20T09:04:12.092Z,28.75
2023-05-20T09:07:18.007Z,28.59
2023-05-20T09:10:06.897Z,29.29
2023-05-20T09:12:55.852Z,29.33
2023-05-20T09:15:40.997Z,29.37
2023-05-20T09:18:19.651Z,29.24
2023-05-20T09:21:15.988Z,28.74
2023-05-20T09:24:01.676Z,29.49
2023-05-20T09:26:37.505Z,29.64
2023-05-20T09:29:32.929Z,29.84
2023-05-20T09:32:41.426Z,30.48
2023-05-20T09:35:27.031Z,29.72
2023-05-20T09:38:12.891Z,29.97
2023-05-20T09:41:01.997Z,29.37
2023-05-20T09:43:47.024Z,29.84
2023-05-20T09:46:18.171Z,30.41
2023-05-20T09:48:54.600Z,30.29
2023-05-20T09:51:39.143Z,30.43
2023-05-20T09:54:13.078Z,30.63
2023-05-20T09:56:59.288Z,30.76
2023-05-20T09:59:46.558Z,29.72
2023-05-20T10:02:36.864Z,30.48
2023-05-20T10:05:20.481Z,30.93
2023-05-20T10:08:44.139Z,31.69
2023-05-20T10:11:37.962Z,31.08
2023-05-20T10:14:35.087Z,31.36
2023-05-20T10:17:26.877Z,31.08
2023-05-20T10:20:12.973Z,31.21
2023-05-20T10:22:55.540Z,31.82
2023-05-20T10:29:11.783Z,31.50
2023-05-20T10:32:04.553Z,32.43
2023-05-20T10:34:51.748Z,31.13
2023-05-20T10:37:48.347Z,31.18
2023-05-20T10:40:31.433Z,31.36
2023-05-20T10:43:16.364Z,31.82
2023-05-20T10:46:00.277Z,32.32
2023-05-20T10:48:45.389Z,33.24
2023-05-20T10:51:33.002Z,32.67
2023-05-20T10:54:16.486Z,33.33
2023-05-20T10:57:02.712Z,34.47
2023-05-20T10:59:39.036Z,33.53
2023-05-20T11:02:20.398Z,33.19
2023-05-20T11:04:47.987Z,34.18
2023-05-20T11:07:35.356Z,32.88
2023-05-20T11:10:05.367Z,32.71
2023-05-20T11:12:40.778Z,33.31
2023-05-20T11:15:24.854Z,33.81
2023-05-20T11:18:06.250Z,34.28
2023-05-20T11:20:55.632Z,33.87
2023-05-20T11:23:31.529Z,33.17
2023-05-20T11:26:14.380Z,33.89
2023-05-20T11:28:48.038Z,34.56
2023-05-20T11:31:34.889Z,34.98
2023-05-20T11:34:16.071Z,34.79
2023-05-20T11:37:11.276Z,34.49
2023-05-20T11:39:46.294Z,34.70
2023-05-20T11:42:21.847Z,34.95
2023-05-20T11:44:49.356Z,34.07
2023-05-20T11:47:19.294Z,34.27
2023-05-20T11:50:04.968Z,34.17
2023-05-20T11:52:48.929Z,34.48
2023-05-20T11:55:28.224Z,34.12
2023-05-20T11:57:56.922Z,33.55
2023-05-20T12:00:36.266Z,33.51
2023-05-20T12:03:33.078Z,33.16
2023-05-20T12:06:06.226Z,33.14
2023-05-20T12:08:49.667Z,33.65
2023-05-20T12:11:36.928Z,32.82
2023-05-20T12:14:21.456Z,33.97
2023-05-20T12:16:57.047Z,33.88
2023-05-20T12:19:37.005Z,34.61
2023-05-20T12:22:24.650Z,34.49
2023-05-20T12:25:03.182Z,34.67
2023-05-20T12:27:48.217Z,35.01
2023-05-20T12:30:21.077Z,34.36
2023-05-20T12:33:08.682Z,33.53
2023-05-20T12:35:51.286Z,34.75
2023-05-20T12:38:26.713Z,34.38
2023-05-20T12:41:04.312Z,34.64
2023-05-20T12:43:36.814Z,34.56
2023-05-20T12:46:15.433Z,34.36
2023-05-20T12:48:45.522Z,34.08
2023-05-20T12:51:31.594Z,34.51
2023-05-20T12:54:21.115Z,35.47
2023-05-20T12:57:07.340Z,35.73
2023-05-20T12:59:45.388Z,35.79
2023-05-20T13:02:27.767Z,34.96
2023-05-20T13:05:16.382Z,34.81
2023-05-20T13:08:03.644Z,34.50
2023-05-20T13:10:45.099Z,36.04
2023-05-20T13:13:16.463Z,35.55
2023-05-20T13:15:58.023Z,34.76
2023-05-20T13:18:41.757Z,35.05
2023-05-20T13:21:22.115Z,35.55
2023-05-20T13:24:06.091Z,35.21
2023-05-20T13:26:48.380Z,35.39
2023-05-20T13:29:36.725Z,36.02
2023-05-20T13:32:15.347Z,35.63
2023-05-20T13:34:59.819Z,36.42
2023-05-20T13:37:42.602Z,35.54
2023-05-20T13:40:16.888Z,35.47
2023-05-20T13:43:05.243Z,34.72
2023-05-20T13:45:38.071Z,35.24
2023-05-20T13:48:13.596Z,36.46
2023-05-20T13:51:05.141Z,37.56
